WEATHER DATA

TODAY
Time Temp. Dewp. Hum. Bar.
00:04 14 7.5 65 1022.6
00:14 13.9 7.7 66 1022.6
00:24 13.9 7.7 66 1022.6
00:35 14 7.8 66 1022.5
00:45 14 7.8 66 1022.5
00:54 14 7.8 66 1022.4
01:05 14 7.5 65 1022.5
01:15 14.1 7.9 66 1022.4
01:25 14 7.8 66 1022.5
01:35 14 7.8 66 1022.4
01:46 13.9 7.7 66 1022.3
01:55 13.9 7.7 66 1022.3
02:05 13.9 7.7 66 1022.2
02:16 13.7 7.5 66 1022.1
02:26 13.6 7.4 66 1022.1
02:36 13.5 7.3 66 1022.1
02:45 13.4 7.2 66 1022
02:56 13.2 7 66 1021.9
03:06 13.2 7 66 1021.9
03:16 13.3 7.5 68 1021.8
03:26 13.4 7.8 69 1021.6
03:36 13.6 7.8 68 1021.4
03:46 13.6 7.8 68 1021.2
03:56 13.7 7.9 68 1021.1
04:07 13.7 7.7 67 1021.1
04:17 13.7 7.7 67 1021
04:26 13.7 7.7 67 1020.9
04:37 13.7 7.5 66 1020.9
04:47 13.7 7.5 66 1020.9
04:57 13.7 7.5 66 1021
05:07 13.6 7.6 67 1020.8
05:17 13.6 7.8 68 1020.9
05:27 13.5 7.7 68 1020.9
05:37 13.6 7.8 68 1020.9
05:47 13.7 8.1 69 1021
05:58 14.3 8.5 68 1020.8
06:07 14.5 8.7 68 1020.8
06:17 14.5 8.5 67 1020.7
06:28 14.4 8.4 67 1020.7
06:38 14.3 8.5 68 1020.7
06:48 14.3 8.5 68 1020.7
06:57 14.5 8.7 68 1020.8
07:08 14.7 8.9 68 1020.8
07:18 15 8.9 67 1020.8
07:28 15.3 9.4 68 1020.8
07:39 15.6 9.5 67 1020.7
07:48 16 9.9 67 1020.9
07:58 16.4 9.8 65 1020.8
08:08 16.8 10.2 65 1020.9
08:18 17.6 10.5 63 1020.9
08:29 18.2 10.8 62 1020.7
08:38 18.7 11 61 1020.7
08:49 19.4 11.2 59 1020.6
08:59 19.8 11.3 58 1020.7
09:09 20.2 11.2 56 1020.5
09:19 20.3 11 55 1020.6
09:29 20.6 11.5 56 1020.5
09:39 21.2 11.3 53 1020.3
09:49 21.6 11 51 1020.3
09:59 21.9 11.6 52 1020.3
10:10 22.3 12 52 1020.2
10:19 22.6 11 48 1020.1
10:29 23.1 11.2 47 1020.1
10:40 23.7 12.1 48 1019.9
11:00 23.8 11.2 45 1019.7
11:10 23.9 11.9 47 1019.7
11:20 24 11.3 45 1019.6
11:30 23.9 12.2 48 1019.5
11:40 23.8 12.1 48 1019.4
11:51 23.8 12.8 50 1019.3
12:00 24 11.7 46 1019.2
12:10 24 11.3 45 1019.1
12:20 24.2 12.2 47 1018.9
12:31 24.5 11.1 43 1018.8
12:41 24.9 10.4 40 1018.7
12:51 25.2 10.7 40 1018.6
13:01 25.4 10.1 38 1018.5
13:11 25.5 9.8 37 1018.5
13:21 25.4 9.3 36 1018.4
13:31 25.7 7.8 32 1018.3
13:42 26.1 9.9 36 1018
13:51 26.5 8.9 33 1017.9
14:01 25.8 7.9 32 1018
14:12 25.8 10.4 38 1017.8
14:22 26.5 10.2 36 1017.7
14:32 26.6 10.3 36 1017.6
14:41 26.7 10 35 1017.7
14:52 26.7 10 35 1017.4
15:02 26.3 10.1 36 1017.5
15:12 26 10.2 37 1017.4
15:22 25.7 9.9 37 1017.2
15:32 25.4 9.7 37 1017.3
15:42 25.4 9.3 36 1017.1
15:52 25 10.5 40 1017.2
16:03 25.3 10.7 40 1017
16:13 25.3 10.7 40 1016.8
16:23 25 10.1 39 1016.7
16:32 24.9 9.6 38 1016.5
16:43 25 10.5 40 1016.5
16:53 24.9 10 39 1016.2
17:03 25 10.1 39 1016.3
17:13 25.1 9.8 38 1016.7
17:23 25.4 10.5 39 1016.2
17:33 25.8 10.4 38 1016.7
17:43 26.2 10 36 1016.1
17:54 25.6 10.2 38 1015.8
18:04 25.4 10.5 39 1015.7
18:13 25.5 10.2 38 1015.5
18:24 25.2 12.8 46 1015.3
18:34 24.5 13.1 49 1015.3
18:44 23.9 13.2 51 1015.3
18:54 23.5 13.4 53 1015.1

DAY STATISTIC

2020-07-13
TEMPERATURE
AVERAGE
19.7
HIGH
26.7
14:41
LOW
13.2
02:56
PRESSURE
AVERAGE
1019.6
HIGH
1022.6
00:04
LOW
1015.1
18:54
DEWPOINT
AVERAGE
9.6
HIGH
13.4
18:54
LOW
7.0
02:56
HUMIDITY
AVERAGE
54
HIGH
69
03:26
LOW
32
13:31
TEMPERATURE (°C)
LOW
13.2
HIGH
26.7
AVERAGE
19.7
PRESSURE (hpa)
LOW
1015.1
HIGH
1022.6
AVERAGE
1019.6
DEVICE